Terminal Aerodrome Forecast
Issued by NWS

Current Version | Previous Version | Graphics & Text | Print | Product List | Glossary On
Versions: 1 2 3 4 5 6 7 8 9 10 11 12 13 14 15 16 17 18 19 20 21 22 23 24 25 26 27 28 29 30 31 32 33 34 35 36 37 38 39
000
FTUS41 KRNK 211140
TAFLWB
TAF
KLWB 211140Z 2112/2212 VRB03KT 6SM BR SCT005 SCT100
     FM211430 27006KT P6SM SCT040 BKN250
     FM211900 29012G22KT 5SM TSRA OVC035CB
     FM212100 29004KT P6SM -SHRA VCTS BKN050CB OVC120
     FM220300 00000KT 3SM BR SCT002
     FM220800 00000KT 1/4SM FG VV002=

USA.gov is the U.S. government's official web portal to all federal, state and local government web resources and services.